Time;durP1;ratioP1;P1;durP2;ratioP2;P2;SDS_P1;SDS_P2;PMS_P1;PMS_P2;Temp;Humidity;BMP_temperature;BMP_pressure;BME280_temperature;BME280_humidity;BME280_pressure;Samples;Min_cycle;Max_cycle;Signal;HPM_P1;HPM_P2
2021/03/08 00:00:27;;;;;;;13.35;8.55;;;;;;;0.05;53.84;99356.03;5114400;28;20047;-70
2021/03/08 00:02:56;;;;;;;13.05;8.23;;;;;;;-0.07;53.95;99352.56;5114366;28;20054;-69
2021/03/08 00:05:23;;;;;;;14.05;8.93;;;;;;;-0.15;54.18;99360.06;5114275;28;20406;-69
2021/03/08 00:07:50;;;;;;;15.35;9.02;;;;;;;-0.21;54.17;99363.94;5114151;28;20078;-69
2021/03/08 00:10:18;;;;;;;11.30;8.20;;;;;;;-0.21;54.56;99353.53;5114135;28;20039;-70
2021/03/08 00:12:46;;;;;;;15.52;9.23;;;;;;;-0.13;54.55;99353.81;5114288;28;20270;-70
2021/03/08 00:15:16;;;;;;;11.13;7.70;;;;;;;-0.09;54.39;99357.03;5114087;28;20040;-69
2021/03/08 00:17:43;;;;;;;13.68;8.27;;;;;;;-0.16;54.20;99363.63;5113980;28;20048;-70
2021/03/08 00:20:12;;;;;;;14.45;8.90;;;;;;;-0.29;54.43;99353.25;5114049;28;20085;-70
2021/03/08 00:22:40;;;;;;;12.02;8.38;;;;;;;-0.28;54.77;99357.53;5114140;28;20048;-70
2021/03/08 00:25:09;;;;;;;13.70;7.97;;;;;;;-0.29;54.51;99356.72;5114044;28;20063;-70
2021/03/08 00:27:36;;;;;;;12.82;8.40;;;;;;;-0.41;54.95;99359.34;5118737;28;20090;-73
2021/03/08 00:30:04;;;;;;;20.33;9.15;;;;;;;-0.36;54.90;99354.66;5139389;28;20031;-73
2021/03/08 00:32:31;;;;;;;11.88;8.20;;;;;;;-0.31;55.19;99350.78;5140808;28;20033;-70
2021/03/08 00:34:58;;;;;;;13.43;8.45;;;;;;;-0.19;55.04;99356.88;5113259;28;20455;-69
2021/03/08 00:37:30;;;;;;;12.93;9.02;;;;;;;-0.16;54.70;99359.25;5114060;28;20050;-69
2021/03/08 00:39:57;;;;;;;12.98;8.50;;;;;;;-0.22;54.79;99359.69;5113661;28;20086;-69
2021/03/08 00:42:24;;;;;;;11.95;8.55;;;;;;;-0.29;55.00;99358.44;5113696;28;20489;-70
2021/03/08 00:44:51;;;;;;;12.63;8.52;;;;;;;-0.33;54.90;99360.47;5111988;28;20404;-70
2021/03/08 00:47:17;;;;;;;15.27;9.57;;;;;;;-0.40;55.19;99354.03;5113550;28;20039;-69
2021/03/08 00:49:46;;;;;;;14.25;9.30;;;;;;;-0.45;55.19;99352.69;5111954;28;20055;-70
2021/03/08 00:52:12;;;;;;;13.85;8.93;;;;;;;-0.46;55.59;99357.06;5112179;28;20039;-70
2021/03/08 00:54:39;;;;;;;15.20;9.02;;;;;;;-0.45;55.64;99360.50;5113257;28;20067;-69
2021/03/08 00:57:07;;;;;;;15.13;8.68;;;;;;;-0.47;55.58;99359.78;5112123;28;20039;-70
2021/03/08 00:59:38;;;;;;;15.05;9.45;;;;;;;-0.46;55.77;99364.03;5111894;28;20101;-69
2021/03/08 01:02:06;;;;;;;11.77;8.90;;;;;;;-0.47;55.88;99355.41;5113195;28;20096;-70
2021/03/08 01:04:33;;;;;;;15.35;9.18;;;;;;;-0.48;55.66;99345.97;5111739;28;20040;-69
2021/03/08 01:07:01;;;;;;;12.60;9.55;;;;;;;-0.51;55.78;99347.00;5111675;28;20039;-71
2021/03/08 01:09:28;;;;;;;13.50;9.77;;;;;;;-0.55;55.76;99349.94;5111487;28;20054;-69
2021/03/08 01:11:55;;;;;;;15.40;9.63;;;;;;;-0.56;55.98;99348.28;5113155;28;20048;-69
2021/03/08 01:14:22;;;;;;;15.38;9.52;;;;;;;-0.54;56.01;99342.03;5112917;28;20547;-70
2021/03/08 01:16:49;;;;;;;13.25;9.73;;;;;;;-0.56;55.96;99346.50;5111618;28;20047;-70
2021/03/08 01:19:16;;;;;;;13.02;9.48;;;;;;;-0.58;56.28;99337.97;5112833;28;20092;-68
2021/03/08 01:21:43;;;;;;;15.25;10.48;;;;;;;-0.59;56.29;99348.50;5112855;28;20401;-70
2021/03/08 01:24:10;;;;;;;13.98;10.27;;;;;;;-0.65;56.46;99344.56;5112558;28;20073;-72
2021/03/08 01:26:38;;;;;;;14.90;10.20;;;;;;;-0.75;56.46;99343.53;5112794;28;20406;-68
2021/03/08 01:29:04;;;;;;;14.60;10.73;;;;;;;-0.83;56.87;99345.84;5112467;28;20052;-68
2021/03/08 01:31:31;;;;;;;13.88;9.60;;;;;;;-0.83;57.12;99338.88;5111524;28;20050;-69
2021/03/08 01:33:58;;;;;;;17.08;10.20;;;;;;;-0.94;57.22;99338.81;5112701;28;20039;-69
2021/03/08 01:36:25;;;;;;;13.93;10.13;;;;;;;-0.97;57.53;99322.63;5112558;28;20047;-69
2021/03/08 01:38:52;;;;;;;13.48;9.88;;;;;;;-0.95;57.36;99328.53;5112311;28;20058;-68
2021/03/08 01:41:19;;;;;;;14.85;10.73;;;;;;;-0.93;57.45;99331.88;5112617;28;20048;-68
2021/03/08 01:43:46;;;;;;;14.13;10.27;;;;;;;-0.99;57.47;99330.50;5112371;28;20097;-69
2021/03/08 01:46:12;;;;;;;16.27;9.25;;;;;;;-1.04;57.61;99325.63;5111114;28;20070;-68
2021/03/08 01:48:39;;;;;;;16.40;10.10;;;;;;;-0.96;57.75;99325.13;5112280;28;20055;-69
2021/03/08 01:51:07;;;;;;;15.02;9.73;;;;;;;-0.97;57.79;99320.88;5112532;28;20062;-68
2021/03/08 01:53:35;;;;;;;13.57;9.57;;;;;;;-0.96;57.51;99314.72;5111401;28;20040;-70
2021/03/08 01:56:03;;;;;;;15.50;10.30;;;;;;;-1.01;57.50;99319.41;5112038;28;20044;-70
2021/03/08 01:58:30;;;;;;;16.98;10.70;;;;;;;-1.04;57.74;99322.22;5112602;28;20588;-70
2021/03/08 02:00:57;;;;;;;19.20;11.45;;;;;;;-1.15;57.76;99322.94;5113141;28;20047;-69
2021/03/08 02:03:25;;;;;;;16.48;10.65;;;;;;;-1.21;57.96;99322.56;5112062;28;20047;-70
2021/03/08 02:05:52;;;;;;;14.52;10.18;;;;;;;-1.30;58.59;99317.06;5112807;28;20068;-70
2021/03/08 02:08:22;;;;;;;15.75;9.60;;;;;;;-1.23;58.82;99317.47;5112924;28;20066;-70
2021/03/08 02:10:50;;;;;;;15.07;10.27;;;;;;;-1.09;58.42;99322.53;5113215;28;20035;-70
2021/03/08 02:13:33;;;;;;;13.70;9.75;;;;;;;-1.06;58.64;99317.16;5113143;28;20134;-70
2021/03/08 02:16:06;;;;;;;13.35;10.00;;;;;;;-1.00;58.32;99313.28;5112484;28;20058;-69
2021/03/08 02:18:42;;;;;;;11.88;8.88;;;;;;;-1.06;58.40;99308.53;5112027;28;20052;-70
2021/03/08 02:21:34;;;;;;;14.98;9.82;;;;;;;-0.93;58.52;99309.34;5112388;28;20516;-70
2021/03/08 02:24:30;;;;;;;14.38;9.60;;;;;;;-0.89;58.50;99307.34;5112185;28;20058;-71
2021/03/08 02:26:59;;;;;;;16.15;10.65;;;;;;;-0.97;58.12;99307.88;5111023;28;20048;-70
2021/03/08 02:29:56;;;;;;;19.98;11.50;;;;;;;-1.03;58.46;99311.72;5111921;28;20040;-70
2021/03/08 02:32:29;;;;;;;15.32;10.85;;;;;;;-1.01;58.61;99307.28;5112276;28;20046;-71
2021/03/08 02:35:02;;;;;;;15.85;10.07;;;;;;;-1.01;58.67;99303.84;5110839;28;20134;-69
2021/03/08 02:37:32;;;;;;;13.13;10.00;;;;;;;-0.94;58.68;99306.81;5111113;28;20055;-70
2021/03/08 02:40:04;;;;;;;15.35;10.60;;;;;;;-0.98;58.53;99300.19;5112049;28;20058;-71
2021/03/08 02:42:35;;;;;;;17.23;10.40;;;;;;;-0.97;58.77;99294.91;5112752;28;20039;-70
2021/03/08 02:45:04;;;;;;;12.93;9.80;;;;;;;-0.87;58.68;99292.50;5112350;28;20047;-70
2021/03/08 02:47:32;;;;;;;16.90;11.07;;;;;;;-0.93;58.32;99301.53;5112016;28;20122;-69
2021/03/08 02:50:03;;;;;;;17.00;11.32;;;;;;;-1.12;58.46;99304.59;5110618;28;20448;-70
2021/03/08 02:52:34;;;;;;;13.88;10.13;;;;;;;-1.31;58.74;99299.00;5111763;28;20054;-70
2021/03/08 02:55:03;;;;;;;17.05;10.82;;;;;;;-1.38;59.23;99300.38;5110547;28;20051;-70
2021/03/08 02:57:35;;;;;;;19.05;11.18;;;;;;;-1.37;59.27;99296.84;5112454;28;20127;-71
2021/03/08 03:00:06;;;;;;;17.70;11.60;;;;;;;-1.37;59.42;99297.66;5112556;28;20052;-70
2021/03/08 03:02:34;;;;;;;15.65;10.23;;;;;;;-1.23;59.59;99293.28;5112043;28;20047;-70
2021/03/08 03:05:05;;;;;;;16.20;10.68;;;;;;;-1.16;58.95;99290.16;5111680;28;20035;-70
2021/03/08 03:07:34;;;;;;;18.65;10.60;;;;;;;-1.22;59.27;99290.59;5113205;28;20043;-69
2021/03/08 03:10:04;;;;;;;15.07;11.13;;;;;;;-1.16;59.39;99295.34;5115200;28;20043;-69
2021/03/08 03:12:33;;;;;;;17.67;11.57;;;;;;;-1.20;59.18;99288.72;5115303;28;20505;-70
2021/03/08 03:15:00;;;;;;;15.75;10.70;;;;;;;-1.36;59.47;99301.91;5115105;28;20047;-70
2021/03/08 03:17:29;;;;;;;20.05;11.35;;;;;;;-1.52;59.76;99293.50;5113988;28;20043;-70
2021/03/08 03:20:00;;;;;;;18.98;11.43;;;;;;;-1.58;60.16;99291.34;5115105;28;20127;-70
2021/03/08 03:22:28;;;;;;;18.10;11.48;;;;;;;-1.63;60.26;99291.66;5115241;28;20040;-70
2021/03/08 03:24:58;;;;;;;16.45;10.98;;;;;;;-1.59;60.37;99300.06;5114891;28;20036;-69
2021/03/08 03:27:26;;;;;;;17.25;11.98;;;;;;;-1.60;60.24;99304.41;5113810;28;20138;-69
2021/03/08 03:29:55;;;;;;;14.48;10.32;;;;;;;-1.76;60.71;99298.56;5114850;28;20043;-69
2021/03/08 03:32:22;;;;;;;15.88;9.88;;;;;;;-1.73;60.54;99300.16;5115006;27;20044;-70
2021/03/08 03:34:50;;;;;;;14.60;10.60;;;;;;;-1.67;60.54;99299.75;5114835;28;20626;-70
2021/03/08 03:37:21;;;;;;;15.35;10.93;;;;;;;-1.80;60.75;99297.97;5113659;28;20047;-70
2021/03/08 03:39:49;;;;;;;15.85;10.60;;;;;;;-1.69;60.75;99301.59;5114700;28;20064;-70
2021/03/08 03:42:16;;;;;;;18.90;10.50;;;;;;;-1.69;60.42;99297.25;5113560;28;20044;-70
2021/03/08 03:44:43;;;;;;;17.38;10.95;;;;;;;-1.77;60.41;99302.94;5114528;28;20409;-70
2021/03/08 03:47:10;;;;;;;18.75;11.60;;;;;;;-1.87;60.67;99298.50;5113326;28;20047;-70
2021/03/08 03:49:37;;;;;;;17.98;11.73;;;;;;;-1.98;60.88;99301.78;5114368;28;20074;-71
2021/03/08 03:52:04;;;;;;;15.20;11.40;;;;;;;-2.03;61.15;99301.25;5113309;28;20497;-70
2021/03/08 03:54:32;;;;;;;17.08;11.63;;;;;;;-2.05;61.23;99303.94;5113029;28;20051;-70
2021/03/08 03:57:03;;;;;;;16.52;11.15;;;;;;;-2.08;61.29;99318.88;5114501;28;20040;-71
2021/03/08 03:59:44;;;;;;;15.93;10.82;;;;;;;-2.20;61.85;99319.66;5114430;28;20059;-70
2021/03/08 04:02:15;;;;;;;19.15;12.15;;;;;;;-2.30;61.58;99327.19;5114696;28;20040;-69
2021/03/08 04:04:49;;;;;;;14.55;10.20;;;;;;;-2.34;61.89;99320.53;5119074;28;20040;-71
2021/03/08 04:07:18;;;;;;;16.17;10.20;;;;;;;-2.31;61.99;99321.16;5140053;28;20096;-72
2021/03/08 04:09:49;;;;;;;14.45;10.60;;;;;;;-2.25;61.96;99317.34;5138988;28;20016;-69
2021/03/08 04:12:20;;;;;;;19.83;10.65;;;;;;;-2.26;62.08;99318.28;5117234;28;20035;-69
2021/03/08 04:14:52;;;;;;;15.48;10.07;;;;;;;-2.23;62.22;99318.09;5115889;28;20032;-70
2021/03/08 04:17:19;;;;;;;15.02;9.57;;;;;;;-2.36;62.12;99323.22;5114650;28;20062;-70
2021/03/08 04:19:47;;;;;;;16.08;10.55;;;;;;;-2.42;62.50;99323.59;5114170;28;20063;-70
2021/03/08 04:22:15;;;;;;;15.10;10.68;;;;;;;-2.38;62.57;99324.25;5114310;28;20486;-70
2021/03/08 04:24:42;;;;;;;13.07;10.10;;;;;;;-2.41;62.49;99332.19;5113770;28;20122;-70
2021/03/08 04:27:13;;;;;;;16.77;10.43;;;;;;;-2.35;62.48;99332.66;5113853;28;20039;-70
2021/03/08 04:29:41;;;;;;;16.95;11.50;;;;;;;-2.34;62.45;99333.47;5113744;28;20131;-70
2021/03/08 04:32:17;;;;;;;15.40;10.73;;;;;;;-2.41;62.60;99339.97;5113894;28;20097;-69
2021/03/08 04:34:46;;;;;;;16.33;11.32;;;;;;;-2.40;62.96;99334.72;5112306;28;20043;-70
2021/03/08 04:37:14;;;;;;;19.00;12.35;;;;;;;-2.40;62.85;99342.47;5113728;28;20035;-70
2021/03/08 04:39:41;;;;;;;16.45;11.50;;;;;;;-2.42;62.83;99343.50;5113849;28;20439;-70
2021/03/08 04:42:12;;;;;;;15.48;10.85;;;;;;;-2.47;62.77;99342.97;5112310;28;20516;-71
2021/03/08 04:44:40;;;;;;;16.58;11.10;;;;;;;-2.45;62.99;99348.88;5113355;28;20039;-70
2021/03/08 04:47:07;;;;;;;17.08;12.02;;;;;;;-2.43;62.95;99341.84;5113472;28;20043;-70
2021/03/08 04:49:35;;;;;;;21.58;12.10;;;;;;;-2.39;62.87;99346.72;5113297;28;20039;-69
2021/03/08 04:52:02;;;;;;;16.95;11.70;;;;;;;-2.38;62.75;99338.03;5113529;28;20050;-70
2021/03/08 04:54:30;;;;;;;15.50;11.77;;;;;;;-2.37;62.81;99349.22;5113258;28;20047;-70
2021/03/08 04:56:57;;;;;;;17.73;11.60;;;;;;;-2.45;62.87;99356.63;5112082;28;20490;-70
2021/03/08 04:59:24;;;;;;;17.70;11.82;;;;;;;-2.55;63.15;99352.03;5111826;28;20048;-69
2021/03/08 05:01:56;;;;;;;19.13;11.70;;;;;;;-2.57;63.28;99347.91;5113137;28;20039;-70
2021/03/08 05:04:25;;;;;;;17.27;11.50;;;;;;;-2.48;63.57;99344.72;5112874;28;20043;-70
2021/03/08 05:06:52;;;;;;;16.10;11.35;;;;;;;-2.35;63.34;99345.59;5113231;28;20046;-70
2021/03/08 05:09:20;;;;;;;19.00;11.32;;;;;;;-2.32;62.95;99344.59;5112892;28;20043;-70
2021/03/08 05:11:50;;;;;;;17.83;11.00;;;;;;;-2.33;62.87;99345.50;5112999;28;20382;-70
2021/03/08 05:14:20;;;;;;;18.88;12.25;;;;;;;-2.36;62.89;99346.53;5112941;28;20043;-70
2021/03/08 05:16:50;;;;;;;19.38;13.10;;;;;;;-2.45;63.07;99347.13;5113041;28;20660;-69
2021/03/08 05:19:19;;;;;;;18.02;12.73;;;;;;;-2.59;63.20;99345.38;5112809;27;20109;-70
2021/03/08 05:21:48;;;;;;;18.17;11.68;;;;;;;-2.70;63.51;99358.16;5113013;28;20043;-70
2021/03/08 05:24:16;;;;;;;18.33;11.77;;;;;;;-2.66;63.44;99363.97;5112789;28;20409;-70
2021/03/08 05:26:44;;;;;;;18.33;12.30;;;;;;;-2.70;63.36;99365.09;5112861;28;20040;-70
2021/03/08 05:29:10;;;;;;;17.77;11.85;;;;;;;-2.70;63.39;99367.69;5111993;28;20047;-70
2021/03/08 05:31:41;;;;;;;18.00;11.95;;;;;;;-2.71;63.43;99366.03;5112501;28;20039;-71
2021/03/08 05:34:10;;;;;;;16.42;11.30;;;;;;;-2.75;63.60;99370.56;5112678;28;20039;-71
2021/03/08 05:36:42;;;;;;;16.08;11.30;;;;;;;-2.87;63.71;99369.56;5112709;28;20494;-72
2021/03/08 05:39:11;;;;;;;17.02;12.48;;;;;;;-2.90;64.02;99380.13;5112472;28;20054;-70
2021/03/08 05:41:54;;;;;;;16.98;12.02;;;;;;;-2.87;64.17;99374.72;5111346;28;20092;-71
2021/03/08 05:44:25;;;;;;;21.88;13.70;;;;;;;-2.83;64.03;99370.19;5112447;28;20103;-71
2021/03/08 05:47:25;;;;;;;19.63;13.27;;;;;;;-2.80;63.97;99377.78;5112484;28;20043;-71
2021/03/08 05:50:10;;;;;;;17.63;12.55;;;;;;;-2.82;64.06;99371.84;5112481;28;20053;-72
2021/03/08 05:53:06;;;;;;;16.17;12.38;;;;;;;-2.89;64.18;99373.19;5112693;28;20409;-71
2021/03/08 05:55:57;;;;;;;19.42;13.13;;;;;;;-2.84;64.23;99374.56;5112609;28;20032;-71
2021/03/08 05:58:37;;;;;;;20.90;13.23;;;;;;;-2.82;63.98;99377.03;5112864;28;20478;-71
2021/03/08 06:01:46;;;;;;;22.67;13.55;;;;;;;-2.84;64.17;99374.56;5114983;28;20047;-71
2021/03/08 06:04:47;;;;;;;23.77;14.52;;;;;;;-2.79;64.52;99380.28;5107177;28;20093;-71
2021/03/08 06:07:41;;;;;;;23.70;13.98;;;;;;;-2.62;65.04;99380.97;5110623;28;20062;-70
2021/03/08 06:10:12;;;;;;;21.08;12.55;;;;;;;-2.38;64.39;99394.16;5112399;28;20167;-70
2021/03/08 06:12:40;;;;;;;21.63;13.93;;;;;;;-2.41;63.68;99400.38;5112399;28;20051;-71
2021/03/08 06:15:09;;;;;;;18.33;13.13;;;;;;;-2.50;63.77;99386.22;5112452;28;20043;-72
2021/03/08 06:17:37;;;;;;;21.38;13.25;;;;;;;-2.55;63.56;99397.81;5112374;28;20048;-70
2021/03/08 06:20:05;;;;;;;19.05;13.57;;;;;;;-2.56;63.90;99394.38;5112577;28;20043;-71
2021/03/08 06:22:34;;;;;;;21.63;13.88;;;;;;;-2.55;63.98;99401.22;5111006;28;20050;-70
2021/03/08 06:25:02;;;;;;;25.15;14.13;;;;;;;-2.61;63.93;99393.84;5112102;28;20044;-71
2021/03/08 06:27:31;;;;;;;23.65;13.88;;;;;;;-2.62;64.19;99397.34;5112187;28;20054;-69
2021/03/08 06:29:58;;;;;;;21.85;13.50;;;;;;;-2.62;64.17;99399.09;5110800;28;20142;-69
2021/03/08 06:32:25;;;;;;;19.17;13.55;;;;;;;-2.53;64.13;99393.38;5110808;28;20096;-69
2021/03/08 06:34:52;;;;;;;19.23;13.82;;;;;;;-2.48;63.99;99390.50;5113286;28;20050;-69
2021/03/08 06:37:20;;;;;;;24.13;14.10;;;;;;;-2.38;64.03;99395.00;5113899;28;20054;-70
2021/03/08 06:39:48;;;;;;;19.45;14.25;;;;;;;-2.30;63.81;99394.50;5112087;28;20074;-68
2021/03/08 06:42:16;;;;;;;22.35;14.80;;;;;;;-2.20;64.03;99389.59;5115791;28;20435;-68
2021/03/08 06:44:45;;;;;;;21.38;14.38;;;;;;;-2.17;63.38;99400.56;5115986;28;20043;-68
2021/03/08 06:47:12;;;;;;;21.58;13.85;;;;;;;-2.25;63.33;99395.03;5115990;28;20051;-69
2021/03/08 06:49:39;;;;;;;19.27;13.75;;;;;;;-2.23;63.63;99398.38;5117132;27;20109;-69
2021/03/08 06:52:07;;;;;;;21.83;14.32;;;;;;;-2.16;63.76;99399.66;5116980;28;20043;-69
2021/03/08 06:54:35;;;;;;;28.13;17.95;;;;;;;-1.99;64.03;99408.94;5116028;28;20036;-69
2021/03/08 06:57:23;;;;;;;21.60;14.85;;;;;;;-1.82;63.77;99408.69;5115980;28;20048;-69
2021/03/08 06:59:53;;;;;;;22.90;15.38;;;;;;;-1.72;63.27;99418.44;5115810;28;20640;-69
2021/03/08 07:02:21;;;;;;;21.75;14.20;;;;;;;-1.73;63.30;99427.16;5114800;28;20058;-69
2021/03/08 07:04:49;;;;;;;20.05;13.32;;;;;;;-1.66;63.63;99420.66;5115656;28;20063;-70
2021/03/08 07:07:16;;;;;;;22.13;14.43;;;;;;;-1.57;63.48;99413.09;5115712;27;20039;-70
2021/03/08 07:09:50;;;;;;;21.98;14.00;;;;;;;-1.44;63.09;99423.47;5114028;28;20417;-69
2021/03/08 07:12:20;;;;;;;26.67;16.42;;;;;;;-1.27;62.90;99417.19;5114218;28;20055;-69
2021/03/08 07:15:02;;;;;;;29.40;17.25;;;;;;;-1.22;62.58;99422.91;5114103;28;20047;-71
2021/03/08 07:17:34;;;;;;;22.17;14.55;;;;;;;-1.13;62.35;99426.66;5115652;28;20040;-70
2021/03/08 07:20:04;;;;;;;24.48;16.25;;;;;;;-1.07;62.09;99437.41;5115371;28;20047;-70
2021/03/08 07:22:48;;;;;;;25.05;15.98;;;;;;;-1.24;61.30;99432.53;5115403;28;20051;-70
2021/03/08 07:25:17;;;;;;;25.17;15.68;;;;;;;-1.42;62.12;99438.97;5113827;28;20089;-70
2021/03/08 07:27:49;;;;;;;21.40;15.77;;;;;;;-1.34;62.63;99442.72;5115232;27;20039;-70
2021/03/08 07:30:18;;;;;;;26.98;17.30;;;;;;;-1.11;62.34;99435.97;5115205;28;20052;-69
2021/03/08 07:32:54;;;;;;;24.38;17.75;;;;;;;-0.93;62.69;99430.50;5115558;28;20058;-69
2021/03/08 07:35:37;;;;;;;26.80;18.30;;;;;;;-0.61;62.35;99431.72;5115273;28;20126;-71
2021/03/08 07:38:06;;;;;;;25.23;18.10;;;;;;;-0.40;61.91;99438.94;5116713;28;20056;-71
2021/03/08 07:40:33;;;;;;;27.17;18.02;;;;;;;-0.29;61.69;99434.66;5136793;28;20100;-71
2021/03/08 07:43:01;;;;;;;24.23;16.85;;;;;;;-0.06;61.36;99438.19;5138996;28;20066;-70
2021/03/08 07:45:42;;;;;;;24.75;17.25;;;;;;;0.09;60.92;99444.09;5117043;28;20035;-70
2021/03/08 07:48:13;;;;;;;22.75;16.48;;;;;;;0.14;60.39;99441.16;5115859;27;20397;-70
2021/03/08 07:50:41;;;;;;;26.40;15.68;;;;;;;0.07;60.41;99440.75;5115050;28;20063;-70
2021/03/08 07:53:23;;;;;;;20.42;15.45;;;;;;;0.24;60.73;99440.38;5114192;28;20082;-69
2021/03/08 07:55:51;;;;;;;29.00;16.27;;;;;;;0.45;60.47;99437.97;5114916;28;20046;-69
2021/03/08 07:58:20;;;;;;;24.15;16.08;;;;;;;0.61;60.40;99444.63;5114564;28;20074;-69
2021/03/08 08:00:47;;;;;;;22.15;15.93;;;;;;;0.68;59.61;99445.84;5112932;28;20047;-69
2021/03/08 08:03:16;;;;;;;21.83;14.68;;;;;;;0.67;59.45;99442.41;5114463;28;20408;-69
2021/03/08 08:05:43;;;;;;;22.65;16.00;;;;;;;0.72;59.57;99452.47;5114295;28;20043;-70
2021/03/08 08:08:13;;;;;;;23.67;15.35;;;;;;;0.77;59.61;99447.75;5112964;28;20075;-70
2021/03/08 08:10:42;;;;;;;22.90;14.48;;;;;;;0.96;59.48;99444.63;5114942;28;20043;-71
2021/03/08 08:13:11;;;;;;;21.52;15.77;;;;;;;1.07;58.92;99439.44;5115302;28;20055;-70
2021/03/08 08:15:42;;;;;;;25.15;15.55;;;;;;;1.17;59.00;99450.78;5115580;28;20065;-70
2021/03/08 08:18:15;;;;;;;23.73;15.45;;;;;;;1.32;58.79;99445.38;5116012;28;20127;-70
2021/03/08 08:20:44;;;;;;;20.13;13.95;;;;;;;1.49;58.29;99450.09;5115796;28;20046;-70
2021/03/08 08:23:14;;;;;;;16.30;12.68;;;;;;;1.43;57.28;99438.38;5115889;28;20536;-70
2021/03/08 08:25:45;;;;;;;16.80;13.23;;;;;;;1.44;57.90;99444.41;5113816;28;20044;-70
2021/03/08 08:28:17;;;;;;;16.63;12.65;;;;;;;1.55;57.42;99435.75;5114841;28;20040;-72
2021/03/08 08:30:45;;;;;;;16.35;12.05;;;;;;;1.59;57.22;99442.38;5114381;28;20054;-70
2021/03/08 08:33:27;;;;;;;18.08;12.73;;;;;;;1.68;56.95;99446.91;5115994;28;20048;-70
2021/03/08 08:36:11;;;;;;;18.45;13.05;;;;;;;1.72;56.97;99436.09;5115264;28;20040;-70
2021/03/08 08:38:39;;;;;;;18.90;13.10;;;;;;;1.85;56.92;99435.97;5113144;28;20046;-70
2021/03/08 08:41:22;;;;;;;18.42;13.90;;;;;;;2.04;56.57;99437.94;5113998;28;20036;-70
2021/03/08 08:44:38;;;;;;;17.23;13.32;;;;;;;2.19;56.13;99430.66;5112912;28;20056;-70
2021/03/08 08:47:24;;;;;;;15.75;11.80;;;;;;;2.31;55.87;99436.66;5113154;28;20044;-71
2021/03/08 08:49:54;;;;;;;18.00;11.70;;;;;;;2.46;56.20;99435.41;5113945;28;20097;-70
2021/03/08 08:52:50;;;;;;;16.38;12.20;;;;;;;2.63;55.63;99439.25;5114202;28;20522;-70
2021/03/08 08:55:19;;;;;;;16.73;12.55;;;;;;;2.71;55.59;99434.22;5114217;28;20063;-69
2021/03/08 08:58:23;;;;;;;14.68;11.52;;;;;;;2.86;54.98;99432.97;5112728;28;20425;-69
2021/03/08 09:01:26;;;;;;;16.50;11.82;;;;;;;2.97;55.11;99438.09;5112302;28;20468;-69
2021/03/08 09:03:56;;;;;;;16.05;11.38;;;;;;;3.08;54.48;99425.94;5113226;28;20123;-69
2021/03/08 09:06:51;;;;;;;14.45;11.00;;;;;;;3.22;54.52;99425.56;5113136;28;20047;-69
2021/03/08 09:09:20;;;;;;;13.80;10.73;;;;;;;3.36;54.29;99427.03;5113238;28;20035;-69
2021/03/08 09:11:50;;;;;;;16.88;10.27;;;;;;;3.47;53.59;99426.94;5113031;28;20044;-69
2021/03/08 09:14:29;;;;;;;15.63;10.05;;;;;;;3.52;53.22;99424.75;5112813;28;20474;-69
2021/03/08 09:17:15;;;;;;;18.27;10.85;;;;;;;3.64;52.82;99418.47;5111422;28;20108;-70
2021/03/08 09:19:44;;;;;;;13.45;10.38;;;;;;;3.65;52.49;99425.34;5113395;28;20050;-73
2021/03/08 09:22:37;;;;;;;14.73;9.98;;;;;;;3.70;52.87;99424.94;5112524;28;20047;-72
2021/03/08 09:25:16;;;;;;;14.20;10.07;;;;;;;3.88;52.38;99419.91;5112385;28;20051;-72
2021/03/08 09:27:45;;;;;;;13.77;10.40;;;;;;;3.97;52.16;99419.09;5112636;28;20051;-72
2021/03/08 09:30:16;;;;;;;14.85;10.23;;;;;;;4.03;52.40;99417.69;5111401;28;20073;-72
2021/03/08 09:32:48;;;;;;;18.17;11.02;;;;;;;4.16;51.99;99426.09;5113297;28;20058;-72
2021/03/08 09:35:18;;;;;;;13.52;10.70;;;;;;;4.30;51.70;99423.09;5112553;28;20036;-72
2021/03/08 09:37:46;;;;;;;18.23;10.38;;;;;;;4.38;51.23;99411.94;5112510;28;20043;-72
2021/03/08 09:40:16;;;;;;;15.15;10.52;;;;;;;4.48;51.76;99412.75;5111420;28;20515;-72
2021/03/08 09:42:43;;;;;;;15.13;10.32;;;;;;;4.64;50.81;99413.03;5112597;28;20486;-72
2021/03/08 09:45:18;;;;;;;17.02;10.93;;;;;;;4.74;51.00;99401.72;5112778;28;20039;-72
2021/03/08 09:47:46;;;;;;;16.70;10.88;;;;;;;4.89;50.71;99408.97;5112333;28;20039;-72
2021/03/08 09:50:36;;;;;;;17.77;9.80;;;;;;;4.97;49.87;99408.28;5111117;28;20054;-72
2021/03/08 09:53:04;;;;;;;13.07;9.40;;;;;;;5.00;49.08;99407.19;5110991;28;20062;-72
2021/03/08 09:55:34;;;;;;;14.35;9.10;;;;;;;4.94;48.93;99403.34;5112144;28;20040;-72
2021/03/08 09:58:08;;;;;;;11.88;8.95;;;;;;;4.96;49.34;99402.22;5112061;28;20043;-72
2021/03/08 10:00:35;;;;;;;;;;;;;;;5.01;49.03;99401.78;5111280;28;20408;-72
2021/03/08 10:03:04;;;;;;;15.32;9.90;;;;;;;5.00;49.56;99399.31;5112137;28;20363;-72
2021/03/08 10:05:42;;;;;;;15.32;9.90;;;;;;;5.08;49.12;99402.06;5111962;28;20047;-72
2021/03/08 10:08:10;;;;;;;15.05;9.48;;;;;;;5.06;49.13;99402.19;5110795;28;20052;-72
2021/03/08 10:10:43;;;;;;;16.48;9.98;;;;;;;5.16;48.91;99405.59;5111994;28;20504;-72
2021/03/08 10:13:11;;;;;;;15.48;10.23;;;;;;;5.12;49.38;99406.03;5112164;28;20051;-71
2021/03/08 10:15:40;;;;;;;13.05;9.90;;;;;;;5.35;49.40;99401.28;5112250;28;20040;-71
2021/03/08 10:18:07;;;;;;;13.73;9.50;;;;;;;5.51;48.18;99403.25;5116287;28;20047;-72
2021/03/08 10:20:44;;;;;;;15.80;9.38;;;;;;;5.54;48.36;99402.97;5116280;28;20039;-72
2021/03/08 10:23:14;;;;;;;16.55;9.18;;;;;;;5.68;47.82;99405.13;5116524;28;20412;-72
2021/03/08 10:25:42;;;;;;;13.57;8.90;;;;;;;5.76;47.14;99399.97;5116058;28;20039;-71
2021/03/08 10:28:08;;;;;;;14.55;9.40;;;;;;;5.72;47.50;99407.28;5115967;28;20044;-71
2021/03/08 10:30:35;;;;;;;11.60;7.85;;;;;;;5.74;46.74;99396.63;5116366;28;20048;-71
2021/03/08 10:33:04;;;;;;;15.80;8.35;;;;;;;5.71;46.92;99407.41;5116349;28;20043;-71
2021/03/08 10:35:34;;;;;;;11.20;8.63;;;;;;;5.61;47.20;99391.75;5115782;28;20032;-71
2021/03/08 10:38:22;;;;;;;11.00;7.53;;;;;;;5.72;47.02;99394.19;5114575;28;20058;-72
2021/03/08 10:40:49;;;;;;;13.40;8.93;;;;;;;5.85;46.94;99395.63;5115794;28;20050;-72
2021/03/08 10:43:20;;;;;;;10.43;7.05;;;;;;;5.98;45.76;99401.34;5114803;28;20047;-71
2021/03/08 10:45:49;;;;;;;14.60;8.98;;;;;;;5.86;46.24;99389.38;5115763;28;20051;-71
2021/03/08 10:48:16;;;;;;;10.63;7.55;;;;;;;5.98;46.65;99385.63;5114430;28;20055;-71
2021/03/08 10:50:46;;;;;;;10.18;7.10;;;;;;;6.17;45.72;99382.03;5115953;28;20043;-72
2021/03/08 10:53:28;;;;;;;10.18;6.57;;;;;;;6.22;44.83;99387.66;5116195;28;20397;-72
2021/03/08 10:55:56;;;;;;;9.63;7.32;;;;;;;6.30;44.06;99379.84;5115602;28;20050;-72
2021/03/08 10:58:35;;;;;;;9.73;6.85;;;;;;;6.39;44.29;99375.47;5115561;28;20494;-71
2021/03/08 11:01:08;;;;;;;16.85;7.40;;;;;;;6.43;44.29;99375.03;5115724;27;20042;-71
2021/03/08 11:03:37;;;;;;;13.77;7.30;;;;;;;6.48;44.37;99368.50;5115608;28;20101;-71
2021/03/08 11:06:04;;;;;;;16.02;8.25;;;;;;;6.58;44.18;99372.69;5115245;28;20062;-71
2021/03/08 11:08:37;;;;;;;12.80;6.72;;;;;;;6.63;43.82;99364.34;5114003;28;20134;-71
2021/03/08 11:11:14;;;;;;;9.85;6.63;;;;;;;6.60;44.05;99362.84;5115544;28;20055;-71
2021/03/08 11:13:41;;;;;;;10.80;7.43;;;;;;;6.60;44.25;99369.91;5115500;28;20055;-71
2021/03/08 11:16:09;;;;;;;7.88;5.63;;;;;;;6.55;43.94;99369.53;5115154;28;20046;-71
2021/03/08 11:18:36;;;;;;;10.63;6.68;;;;;;;6.49;44.08;99367.50;5115092;28;20126;-70
2021/03/08 11:21:21;;;;;;;12.85;6.85;;;;;;;6.53;44.48;99359.19;5115195;28;20040;-70
2021/03/08 11:23:49;;;;;;;10.27;7.15;;;;;;;6.61;44.23;99368.91;5115149;28;20071;-70
2021/03/08 11:26:17;;;;;;;11.20;7.80;;;;;;;6.63;44.51;99362.53;5114888;28;20036;-70
2021/03/08 11:28:44;;;;;;;14.55;8.50;;;;;;;6.59;44.73;99365.63;5138438;27;20038;-71
2021/03/08 11:31:22;;;;;;;17.23;8.10;;;;;;;6.66;44.32;99362.25;5141100;28;20039;-71
2021/03/08 11:33:50;;;;;;;14.70;7.20;;;;;;;6.76;43.94;99358.69;5121172;28;20066;-70
2021/03/08 11:36:29;;;;;;;14.48;7.32;;;;;;;6.82;44.06;99356.28;5115106;28;20039;-70
2021/03/08 11:39:02;;;;;;;12.23;6.75;;;;;;;6.74;44.05;99358.84;5114891;28;20048;-71
2021/03/08 11:41:29;;;;;;;7.35;5.43;;;;;;;6.78;43.61;99346.22;5115007;28;20036;-71